createdAt,value
2018-04-24T00:00:04.400Z,99.99
2018-04-24T00:01:04.402Z,99.99
2018-04-24T00:02:04.401Z,99.99
2018-04-24T00:03:04.395Z,99.99
2018-04-24T00:04:04.396Z,99.99
2018-04-24T00:05:04.409Z,99.99
2018-04-24T00:06:04.393Z,99.99
2018-04-24T00:07:04.392Z,99.99
2018-04-24T00:08:04.401Z,99.99
2018-04-24T00:09:04.389Z,99.99
2018-04-24T00:10:04.388Z,99.99
2018-04-24T00:11:04.386Z,99.99
2018-04-24T00:12:04.384Z,99.99
2018-04-24T00:13:04.387Z,99.99
2018-04-24T00:14:04.383Z,99.99
2018-04-24T00:15:04.382Z,99.99
2018-04-24T00:16:04.381Z,99.99
2018-04-24T00:17:04.381Z,99.99
2018-04-24T00:18:04.390Z,99.99
2018-04-24T00:19:05.218Z,99.99
2018-04-24T00:20:04.375Z,99.99
2018-04-24T00:21:04.374Z,99.99
2018-04-24T00:22:04.373Z,99.99
2018-04-24T00:23:04.374Z,99.99
2018-04-24T00:24:04.375Z,99.99
2018-04-24T00:25:04.372Z,99.99
2018-04-24T00:26:04.403Z,99.99
2018-04-24T00:27:04.367Z,99.99
2018-04-24T00:28:04.393Z,99.99
2018-04-24T00:29:04.365Z,99.99
2018-04-24T00:30:04.364Z,99.99
2018-04-24T00:31:04.364Z,99.99
2018-04-24T00:32:04.361Z,99.99
2018-04-24T00:33:04.362Z,99.99
2018-04-24T00:34:04.360Z,99.99
2018-04-24T00:35:04.355Z,99.99
2018-04-24T00:36:04.359Z,99.99
2018-04-24T00:37:04.354Z,99.99
2018-04-24T00:38:04.351Z,99.99
2018-04-24T00:39:04.356Z,99.99
2018-04-24T00:40:04.351Z,99.99
2018-04-24T00:41:04.357Z,99.99
2018-04-24T00:42:04.364Z,99.99
2018-04-24T00:43:04.347Z,99.99
2018-04-24T00:44:04.352Z,99.99
2018-04-24T00:45:04.373Z,99.99
2018-04-24T00:46:04.343Z,99.99
2018-04-24T00:47:04.344Z,99.99
2018-04-24T00:48:04.342Z,99.99
2018-04-24T00:49:04.340Z,99.99
2018-04-24T00:50:04.353Z,99.99
2018-04-24T00:51:04.339Z,99.99
2018-04-24T00:52:04.335Z,99.99
2018-04-24T00:53:04.335Z,99.99
2018-04-24T00:54:05.223Z,99.99
2018-04-24T00:55:04.330Z,99.99
2018-04-24T00:56:04.342Z,99.99
2018-04-24T00:57:04.328Z,99.99
2018-04-24T00:58:04.326Z,99.99
2018-04-24T00:59:04.326Z,99.99
2018-04-24T01:00:04.323Z,99.99
2018-04-24T01:01:04.321Z,99.99
2018-04-24T01:02:04.322Z,99.99
2018-04-24T01:03:04.321Z,99.99
2018-04-24T01:04:04.317Z,99.99
2018-04-24T01:05:04.319Z,99.99
2018-04-24T01:06:04.314Z,99.99
2018-04-24T01:07:04.319Z,99.99
2018-04-24T01:08:04.321Z,99.99
2018-04-24T01:09:04.313Z,99.99
2018-04-24T01:10:04.310Z,99.99
2018-04-24T01:11:04.314Z,99.99
2018-04-24T01:12:04.307Z,99.99
2018-04-24T01:13:04.304Z,99.99
2018-04-24T01:14:04.313Z,99.99
2018-04-24T01:15:04.302Z,99.99
2018-04-24T01:16:04.301Z,99.99
2018-04-24T01:17:04.303Z,99.99
2018-04-24T01:18:04.298Z,99.99
2018-04-24T01:19:04.300Z,99.99
2018-04-24T01:20:04.301Z,99.99
2018-04-24T01:21:04.302Z,99.99
2018-04-24T01:22:04.299Z,99.99
2018-04-24T01:23:04.305Z,99.99
2018-04-24T01:24:04.288Z,99.99
2018-04-24T01:25:04.312Z,99.99
2018-04-24T01:26:04.291Z,99.99
2018-04-24T01:27:04.284Z,99.99
2018-04-24T01:28:04.282Z,99.99
2018-04-24T01:29:04.280Z,99.99
2018-04-24T01:30:04.292Z,99.99
2018-04-24T01:31:04.278Z,99.99
2018-04-24T01:32:04.276Z,99.99
2018-04-24T01:33:04.285Z,99.99
2018-04-24T01:34:04.278Z,99.99
2018-04-24T01:35:04.270Z,99.99
2018-04-24T01:36:04.270Z,99.99
2018-04-24T01:37:04.268Z,99.99
2018-04-24T01:38:04.268Z,99.99
2018-04-24T01:39:04.271Z,99.99
2018-04-24T01:40:04.263Z,99.99
2018-04-24T01:41:04.262Z,99.99
2018-04-24T01:42:04.262Z,99.99
2018-04-24T01:43:04.265Z,99.99
2018-04-24T01:44:04.255Z,99.99
2018-04-24T01:45:04.260Z,99.99
2018-04-24T01:46:04.254Z,99.99
2018-04-24T01:47:04.253Z,99.99
2018-04-24T01:48:04.256Z,99.99
2018-04-24T01:49:04.251Z,99.99
2018-04-24T01:50:04.257Z,99.99
2018-04-24T01:51:04.248Z,99.99
2018-04-24T01:52:04.244Z,99.99
2018-04-24T01:53:04.244Z,99.99
2018-04-24T01:54:04.241Z,99.99
2018-04-24T01:55:04.239Z,99.99
2018-04-24T01:56:04.237Z,99.99
2018-04-24T01:57:04.236Z,99.99
2018-04-24T01:58:04.235Z,99.99
2018-04-24T01:59:04.234Z,99.99
2018-04-24T02:00:04.232Z,99.99
2018-04-24T02:01:04.232Z,99.99
2018-04-24T02:02:04.229Z,99.99
2018-04-24T02:03:04.236Z,99.99
2018-04-24T02:04:04.225Z,99.99
2018-04-24T02:05:04.226Z,99.99
2018-04-24T02:06:04.222Z,99.99
2018-04-24T02:07:04.221Z,99.99
2018-04-24T02:08:04.221Z,99.99
2018-04-24T02:09:04.217Z,99.99
2018-04-24T02:10:04.218Z,99.99
2018-04-24T02:11:04.213Z,99.99
2018-04-24T02:12:04.213Z,99.99
2018-04-24T02:13:04.211Z,99.99
2018-04-24T02:14:04.210Z,99.99
2018-04-24T02:15:04.207Z,99.99
2018-04-24T02:16:04.206Z,99.99
2018-04-24T02:17:04.204Z,99.99
2018-04-24T02:18:04.202Z,99.99
2018-04-24T02:19:04.203Z,99.99
2018-04-24T02:20:04.199Z,99.99
2018-04-24T02:21:04.198Z,99.99
2018-04-24T02:22:04.200Z,99.99
2018-04-24T02:23:04.194Z,99.99
2018-04-24T02:24:04.195Z,99.99
2018-04-24T02:25:04.261Z,99.99
2018-04-24T02:26:04.193Z,99.99
2018-04-24T02:27:04.187Z,99.99
2018-04-24T02:28:04.186Z,99.99
2018-04-24T02:29:04.184Z,99.99
2018-04-24T02:30:04.186Z,99.99
2018-04-24T02:31:04.184Z,99.99
2018-04-24T02:32:04.187Z,99.99
2018-04-24T02:33:04.176Z,99.99
2018-04-24T02:34:04.179Z,99.99
2018-04-24T02:35:04.175Z,99.99
2018-04-24T02:36:04.172Z,99.99
2018-04-24T02:37:04.171Z,99.99
2018-04-24T02:38:04.172Z,99.99
2018-04-24T02:39:04.167Z,99.99
2018-04-24T02:40:04.167Z,99.99
2018-04-24T02:41:04.168Z,99.99
2018-04-24T02:42:04.165Z,99.99
2018-04-24T02:43:04.160Z,99.99
2018-04-24T02:44:04.159Z,99.99
2018-04-24T02:45:04.157Z,99.99
2018-04-24T02:46:04.156Z,99.99
2018-04-24T02:47:04.165Z,99.99
2018-04-24T02:48:04.152Z,99.99
2018-04-24T02:49:04.149Z,99.99
2018-04-24T02:50:04.147Z,99.99
2018-04-24T02:51:04.144Z,99.99
2018-04-24T02:52:04.144Z,99.99
2018-04-24T02:53:04.143Z,99.99
2018-04-24T02:54:04.142Z,99.99
2018-04-24T02:55:04.139Z,99.99
2018-04-24T02:56:04.141Z,99.99
2018-04-24T02:57:04.134Z,99.99
2018-04-24T02:58:04.137Z,99.99
2018-04-24T02:59:04.129Z,99.99
2018-04-24T03:00:04.128Z,99.99
2018-04-24T03:01:04.126Z,99.99
2018-04-24T03:02:04.130Z,99.99
2018-04-24T03:03:04.122Z,99.99
2018-04-24T03:04:04.122Z,99.99
2018-04-24T03:05:04.118Z,99.99
2018-04-24T03:06:04.117Z,99.99
2018-04-24T03:07:04.115Z,99.99
2018-04-24T03:08:04.112Z,99.99
2018-04-24T03:09:04.109Z,99.99
2018-04-24T03:10:04.111Z,99.99
2018-04-24T03:11:04.106Z,99.99
2018-04-24T03:12:04.105Z,99.99
2018-04-24T03:13:04.114Z,99.99
2018-04-24T03:14:04.098Z,99.99
2018-04-24T03:15:04.099Z,99.99
2018-04-24T03:16:04.096Z,99.99
2018-04-24T03:17:04.094Z,99.99
2018-04-24T03:18:04.092Z,99.99
2018-04-24T03:19:04.096Z,99.99
2018-04-24T03:20:04.092Z,99.99
2018-04-24T03:21:04.088Z,99.99
2018-04-24T03:22:04.085Z,99.99
2018-04-24T03:23:04.082Z,99.99
2018-04-24T03:24:04.084Z,99.99
2018-04-24T03:25:04.085Z,99.99
2018-04-24T03:26:04.079Z,99.99
2018-04-24T03:27:04.076Z,99.99
2018-04-24T03:28:04.074Z,99.99
2018-04-24T03:29:04.072Z,99.99
2018-04-24T03:30:04.073Z,99.99
2018-04-24T03:31:04.068Z,99.99
2018-04-24T03:32:04.066Z,99.99
2018-04-24T03:33:04.063Z,99.99
2018-04-24T03:34:04.061Z,99.99
2018-04-24T03:35:04.065Z,99.99
2018-04-24T03:36:04.058Z,99.99
2018-04-24T03:37:04.057Z,99.99
2018-04-24T03:38:04.054Z,99.99
2018-04-24T03:39:04.056Z,99.99
2018-04-24T03:40:04.053Z,99.99
2018-04-24T03:41:04.049Z,99.99
2018-04-24T03:42:04.049Z,99.99
2018-04-24T03:43:04.044Z,99.99
2018-04-24T03:44:04.041Z,99.99
2018-04-24T03:45:04.044Z,99.99
2018-04-24T03:46:04.045Z,99.99
2018-04-24T03:47:04.036Z,99.99
2018-04-24T03:48:04.037Z,99.99
2018-04-24T03:49:04.032Z,99.99
2018-04-24T03:50:04.031Z,99.99
2018-04-24T03:51:04.028Z,99.99
2018-04-24T03:52:04.027Z,99.99
2018-04-24T03:53:04.029Z,99.99
2018-04-24T03:54:04.023Z,99.99
2018-04-24T03:55:04.023Z,99.99
2018-04-24T03:56:04.017Z,99.99
2018-04-24T03:57:04.018Z,99.99
2018-04-24T03:58:04.014Z,99.99
2018-04-24T03:59:04.012Z,99.99
2018-04-24T04:00:04.010Z,99.99
2018-04-24T04:01:04.008Z,99.99
2018-04-24T04:02:04.021Z,99.99
2018-04-24T04:03:04.005Z,99.99
2018-04-24T04:04:04.001Z,99.99
2018-04-24T04:05:03.998Z,99.99
2018-04-24T04:06:03.997Z,99.99
2018-04-24T04:07:03.994Z,99.99
2018-04-24T04:08:03.992Z,99.99
2018-04-24T04:09:03.991Z,99.99
2018-04-24T04:10:03.987Z,99.99
2018-04-24T04:11:03.986Z,99.99
2018-04-24T04:12:03.987Z,99.99
2018-04-24T04:13:03.989Z,99.99
2018-04-24T04:14:03.978Z,99.99
2018-04-24T04:15:03.981Z,99.99
2018-04-24T04:16:03.977Z,99.99
2018-04-24T04:17:03.975Z,99.99
2018-04-24T04:18:03.971Z,99.99
2018-04-24T04:19:03.969Z,99.99
2018-04-24T04:20:03.969Z,99.99
2018-04-24T04:21:03.969Z,99.99
2018-04-24T04:22:03.962Z,99.99
2018-04-24T04:23:03.962Z,99.99
2018-04-24T04:24:04.743Z,99.99
2018-04-24T04:25:03.957Z,99.99
2018-04-24T04:26:03.961Z,99.99
2018-04-24T04:27:03.953Z,99.99
2018-04-24T04:28:03.949Z,99.99
2018-04-24T04:29:03.947Z,99.99
2018-04-24T04:30:03.948Z,99.99
2018-04-24T04:31:03.941Z,99.99
2018-04-24T04:32:03.942Z,99.99
2018-04-24T04:33:03.942Z,99.99
2018-04-24T04:34:03.939Z,99.99
2018-04-24T04:35:03.934Z,99.99
2018-04-24T04:36:03.932Z,99.99
2018-04-24T04:37:03.930Z,99.99
2018-04-24T04:38:03.929Z,99.99
2018-04-24T04:39:03.928Z,99.99
2018-04-24T04:40:03.926Z,99.99
2018-04-24T04:41:03.923Z,99.99
2018-04-24T04:42:03.920Z,99.99
2018-04-24T04:43:03.918Z,99.99
2018-04-24T04:44:03.924Z,99.99
2018-04-24T04:45:03.915Z,99.99
2018-04-24T04:46:03.919Z,99.99
2018-04-24T04:47:03.913Z,99.99
2018-04-24T04:48:03.909Z,99.99
2018-04-24T04:49:03.910Z,99.99
2018-04-24T04:50:03.905Z,99.99
2018-04-24T04:51:03.903Z,99.99
2018-04-24T04:52:03.902Z,99.99
2018-04-24T04:53:03.898Z,99.99
2018-04-24T04:54:03.897Z,99.99
2018-04-24T04:55:03.896Z,99.99
2018-04-24T04:56:03.931Z,99.99
2018-04-24T04:57:03.899Z,99.99
2018-04-24T04:58:03.891Z,99.99
2018-04-24T04:59:03.888Z,99.99
2018-04-24T05:00:03.885Z,99.99
2018-04-24T05:01:03.886Z,99.99
2018-04-24T05:02:03.883Z,99.99
2018-04-24T05:03:03.881Z,99.99
2018-04-24T05:04:03.879Z,99.99
2018-04-24T05:05:03.879Z,99.99
2018-04-24T05:06:03.876Z,98.46
2018-04-24T05:07:03.875Z,98.74
2018-04-24T05:08:03.875Z,98.74
2018-04-24T05:09:03.875Z,98.74
2018-04-24T05:10:03.870Z,98.79
2018-04-24T05:11:03.867Z,99.32
2018-04-24T05:12:03.927Z,99.99
2018-04-24T05:13:03.864Z,99.99
2018-04-24T05:14:03.864Z,99.99
2018-04-24T05:15:03.862Z,99.93
2018-04-24T05:16:03.867Z,99.99
2018-04-24T05:17:03.858Z,99.22
2018-04-24T05:18:03.857Z,99.03
2018-04-24T05:19:03.856Z,99.13
2018-04-24T05:20:03.878Z,98.46
2018-04-24T05:21:03.854Z,98.65
2018-04-24T05:22:03.851Z,97.99
2018-04-24T05:23:03.851Z,97.46
2018-04-24T05:24:03.858Z,97.17
2018-04-24T05:25:03.849Z,96.80
2018-04-24T05:26:03.846Z,95.46
2018-04-24T05:27:03.847Z,94.74
2018-04-24T05:28:03.848Z,94.08
2018-04-24T05:29:03.844Z,93.60
2018-04-24T05:30:03.844Z,92.65
2018-04-24T05:31:03.841Z,92.65
2018-04-24T05:32:04.752Z,92.50
2018-04-24T05:33:03.841Z,92.41
2018-04-24T05:34:03.840Z,91.93
2018-04-24T05:35:03.838Z,90.98
2018-04-24T05:36:03.837Z,90.41
2018-04-24T05:37:03.846Z,89.74
2018-04-24T05:38:03.835Z,90.41
2018-04-24T05:39:03.835Z,89.45
2018-04-24T05:40:03.834Z,89.26
2018-04-24T05:41:03.834Z,89.12
2018-04-24T05:42:03.833Z,88.69
2018-04-24T05:43:03.834Z,88.07
2018-04-24T05:44:03.831Z,87.87
2018-04-24T05:45:03.834Z,87.78
2018-04-24T05:46:03.830Z,88.73
2018-04-24T05:47:03.831Z,88.26
2018-04-24T05:48:03.829Z,87.78
2018-04-24T05:49:03.829Z,87.78
2018-04-24T05:50:03.828Z,87.30
2018-04-24T05:51:03.831Z,87.87
2018-04-24T05:52:03.828Z,87.68
2018-04-24T05:53:03.900Z,86.49
2018-04-24T05:54:03.871Z,85.91
2018-04-24T05:55:03.827Z,85.82
2018-04-24T05:56:03.828Z,86.20
2018-04-24T05:57:05.755Z,85.63
2018-04-24T05:58:03.827Z,83.95
2018-04-24T05:59:03.835Z,81.99
2018-04-24T06:00:03.830Z,80.46
2018-04-24T06:01:03.827Z,80.17
2018-04-24T06:02:03.827Z,79.22
2018-04-24T06:03:03.894Z,79.31
2018-04-24T06:04:03.836Z,79.50
2018-04-24T06:05:03.829Z,80.17
2018-04-24T06:06:03.838Z,79.94
2018-04-24T06:07:03.824Z,80.90
2018-04-24T06:08:03.822Z,80.04
2018-04-24T06:09:03.829Z,80.80
2018-04-24T06:10:03.825Z,80.17
2018-04-24T06:11:03.825Z,79.79
2018-04-24T06:12:03.827Z,77.92
2018-04-24T06:13:03.826Z,75.37
2018-04-24T06:14:03.839Z,73.88
2018-04-24T06:15:03.893Z,73.30
2018-04-24T06:16:03.831Z,72.92
2018-04-24T06:17:03.829Z,73.02
2018-04-24T06:18:03.830Z,73.02
2018-04-24T06:19:03.835Z,72.63
2018-04-24T06:20:03.834Z,71.62
2018-04-24T06:21:03.830Z,71.14
2018-04-24T06:22:03.833Z,70.41
2018-04-24T06:23:03.840Z,69.26
2018-04-24T06:24:03.873Z,68.55
2018-04-24T06:25:03.842Z,69.80
2018-04-24T06:26:03.841Z,70.56
2018-04-24T06:27:03.840Z,69.99
2018-04-24T06:28:03.844Z,70.66
2018-04-24T06:29:03.850Z,70.66
2018-04-24T06:30:03.862Z,70.09
2018-04-24T06:31:03.850Z,69.26
2018-04-24T06:32:03.849Z,67.82
2018-04-24T06:33:03.860Z,66.96
2018-04-24T06:34:03.861Z,66.48
2018-04-24T06:35:03.859Z,65.84
2018-04-24T06:36:03.878Z,65.59
2018-04-24T06:37:03.865Z,64.69
2018-04-24T06:38:03.871Z,65.68
2018-04-24T06:39:03.872Z,65.36
2018-04-24T06:40:03.873Z,65.65
2018-04-24T06:41:03.878Z,66.58
2018-04-24T06:42:03.880Z,66.89
2018-04-24T06:43:03.883Z,66.89
2018-04-24T06:44:03.885Z,66.22
2018-04-24T06:45:03.889Z,65.75
2018-04-24T06:46:03.899Z,66.71
2018-04-24T06:47:03.897Z,65.94
2018-04-24T06:48:03.902Z,65.49
2018-04-24T06:49:03.903Z,65.55
2018-04-24T06:50:03.911Z,65.46
2018-04-24T06:51:03.913Z,65.94
2018-04-24T06:52:03.916Z,66.51
2018-04-24T06:53:03.922Z,66.80
2018-04-24T06:54:03.922Z,66.71
2018-04-24T06:55:03.948Z,66.51
2018-04-24T06:56:03.931Z,66.13
2018-04-24T06:57:03.937Z,66.80
2018-04-24T06:58:03.953Z,66.71
2018-04-24T06:59:03.953Z,65.94
2018-04-24T07:00:03.947Z,65.11
2018-04-24T07:01:03.971Z,65.46
2018-04-24T07:02:03.965Z,65.49
2018-04-24T07:03:03.962Z,65.59
2018-04-24T07:04:03.961Z,65.39
2018-04-24T07:05:03.970Z,65.20
2018-04-24T07:06:03.972Z,64.63
2018-04-24T07:07:03.976Z,65.20
2018-04-24T07:08:03.980Z,65.30
2018-04-24T07:09:03.988Z,65.49
2018-04-24T07:10:04.000Z,65.59
2018-04-24T07:11:04.004Z,66.19
2018-04-24T07:12:03.998Z,66.48
2018-04-24T07:13:04.003Z,67.44
2018-04-24T07:14:04.008Z,67.72
2018-04-24T07:15:04.009Z,67.21
2018-04-24T07:16:04.013Z,68.17
2018-04-24T07:17:04.020Z,67.91
2018-04-24T07:18:04.026Z,68.21
2018-04-24T07:19:04.028Z,67.91
2018-04-24T07:20:04.034Z,68.46
2018-04-24T07:21:04.038Z,69.95
2018-04-24T07:22:04.043Z,71.58
2018-04-24T07:23:04.042Z,72.34
2018-04-24T07:24:04.048Z,71.87
2018-04-24T07:25:04.054Z,71.68
2018-04-24T07:26:04.062Z,71.87
2018-04-24T07:27:04.097Z,71.87
2018-04-24T07:28:04.069Z,70.81
2018-04-24T07:29:04.068Z,71.20
2018-04-24T07:30:04.072Z,71.48
2018-04-24T07:31:04.073Z,72.06
2018-04-24T07:32:04.080Z,71.71
2018-04-24T07:33:04.083Z,71.48
2018-04-24T07:34:04.087Z,70.76
2018-04-24T07:35:04.091Z,71.23
2018-04-24T07:36:04.094Z,70.28
2018-04-24T07:37:04.106Z,69.80
2018-04-24T07:38:04.114Z,71.71
2018-04-24T07:39:04.104Z,70.66
2018-04-24T07:40:04.112Z,71.04
2018-04-24T07:41:04.195Z,69.76
2018-04-24T07:42:04.116Z,70.05
2018-04-24T07:43:04.117Z,70.72
2018-04-24T07:44:04.122Z,71.97
2018-04-24T07:45:04.125Z,70.05
2018-04-24T07:46:04.138Z,70.05
2018-04-24T07:47:04.131Z,70.05
2018-04-24T07:48:04.137Z,70.47
2018-04-24T07:49:04.144Z,70.66
2018-04-24T07:50:04.145Z,70.09
2018-04-24T07:51:04.161Z,70.76
2018-04-24T07:52:04.151Z,70.37
2018-04-24T07:53:04.166Z,69.89
2018-04-24T07:54:04.171Z,69.03
2018-04-24T07:55:04.162Z,69.42
2018-04-24T07:56:04.167Z,69.26
2018-04-24T07:57:04.167Z,69.17
2018-04-24T07:58:04.171Z,68.59
2018-04-24T07:59:04.175Z,68.55
2018-04-24T08:00:04.199Z,68.27
2018-04-24T08:01:04.184Z,69.32
2018-04-24T08:02:04.779Z,69.95
2018-04-24T08:03:04.193Z,70.05
2018-04-24T08:04:04.193Z,69.57
2018-04-24T08:05:04.199Z,69.38
2018-04-24T08:06:04.202Z,70.81
2018-04-24T08:07:04.207Z,70.56
2018-04-24T08:08:04.209Z,70.28
2018-04-24T08:09:04.220Z,70.09
2018-04-24T08:10:04.781Z,69.13
2018-04-24T08:11:04.223Z,70.09
2018-04-24T08:12:04.225Z,69.89
2018-04-24T08:13:04.250Z,69.23
2018-04-24T08:14:04.782Z,68.78
2018-04-24T08:15:04.247Z,69.45
2018-04-24T08:16:04.259Z,69.26
2018-04-24T08:17:04.244Z,67.69
2018-04-24T08:18:04.253Z,67.98
2018-04-24T08:19:04.251Z,68.36
2018-04-24T08:20:04.254Z,69.23
2018-04-24T08:21:04.259Z,69.13
2018-04-24T08:22:04.292Z,69.42
2018-04-24T08:23:04.283Z,68.94
2018-04-24T08:24:04.269Z,68.17
2018-04-24T08:25:04.277Z,68.84
2018-04-24T08:26:04.277Z,68.74
2018-04-24T08:27:04.279Z,69.03
2018-04-24T08:28:04.282Z,68.27
2018-04-24T08:29:04.312Z,67.98
2018-04-24T08:30:04.294Z,67.21
2018-04-24T08:31:04.296Z,67.25
2018-04-24T08:32:04.296Z,67.25
2018-04-24T08:33:04.299Z,67.32
2018-04-24T08:34:04.304Z,66.83
2018-04-24T08:35:04.309Z,64.53
2018-04-24T08:36:04.321Z,64.53
2018-04-24T08:37:04.319Z,65.33
2018-04-24T08:38:04.322Z,63.70
2018-04-24T08:39:04.399Z,62.84
2018-04-24T08:40:04.342Z,62.16
2018-04-24T08:41:04.331Z,62.07
2018-04-24T08:42:04.348Z,63.22
2018-04-24T08:43:04.360Z,64.28
2018-04-24T08:44:04.346Z,63.73
2018-04-24T08:45:04.346Z,62.10
2018-04-24T08:46:04.353Z,62.39
2018-04-24T08:47:04.355Z,61.43
2018-04-24T08:48:04.360Z,61.81
2018-04-24T08:49:04.367Z,61.52
2018-04-24T08:50:04.373Z,61.94
2018-04-24T08:51:04.374Z,62.42
2018-04-24T08:52:04.377Z,62.71
2018-04-24T08:53:04.383Z,62.01
2018-04-24T08:54:04.390Z,60.85
2018-04-24T08:55:04.394Z,63.06
2018-04-24T08:56:04.407Z,62.10
2018-04-24T08:57:04.463Z,62.01
2018-04-24T08:58:04.408Z,61.49
2018-04-24T08:59:04.410Z,63.89
2018-04-24T09:00:04.420Z,62.74
2018-04-24T09:01:04.427Z,62.42
2018-04-24T09:02:04.466Z,62.55
2018-04-24T09:03:04.431Z,62.26
2018-04-24T09:04:04.450Z,62.26
2018-04-24T09:05:04.442Z,62.36
2018-04-24T09:06:04.453Z,60.92
2018-04-24T09:07:04.449Z,60.72
2018-04-24T09:08:04.453Z,62.16
2018-04-24T09:09:04.462Z,60.82
2018-04-24T09:10:04.464Z,62.07
2018-04-24T09:11:04.468Z,62.55
2018-04-24T09:12:04.470Z,61.49
2018-04-24T09:13:04.477Z,62.26
2018-04-24T09:14:04.559Z,62.16
2018-04-24T09:15:04.486Z,61.05
2018-04-24T09:16:04.499Z,60.66
2018-04-24T09:17:04.500Z,59.80
2018-04-24T09:18:04.501Z,58.67
2018-04-24T09:19:04.506Z,59.03
2018-04-24T09:20:04.514Z,59.12
2018-04-24T09:21:04.515Z,58.48
2018-04-24T09:22:04.522Z,59.44
2018-04-24T09:23:04.560Z,58.10
2018-04-24T09:24:04.529Z,59.38
2018-04-24T09:25:04.539Z,58.67
2018-04-24T09:26:04.543Z,58.99
2018-04-24T09:27:04.671Z,58.61
2018-04-24T09:28:04.550Z,57.71
2018-04-24T09:29:04.553Z,57.40
2018-04-24T09:30:04.562Z,57.59
2018-04-24T09:31:04.563Z,58.52
2018-04-24T09:32:04.564Z,59.09
2018-04-24T09:33:04.573Z,59.19
2018-04-24T09:34:04.578Z,60.08
2018-04-24T09:35:04.581Z,59.09
2018-04-24T09:36:04.586Z,59.09
2018-04-24T09:37:04.593Z,60.05
2018-04-24T09:38:04.599Z,59.86
2018-04-24T09:39:04.671Z,59.09
2018-04-24T09:40:04.607Z,59.96
2018-04-24T09:41:04.614Z,60.35
2018-04-24T09:42:04.617Z,60.47
2018-04-24T09:43:04.620Z,60.75
2018-04-24T09:44:04.625Z,58.74
2018-04-24T09:45:04.633Z,58.52
2018-04-24T09:46:04.653Z,59.12
2018-04-24T09:47:04.642Z,58.64
2018-04-24T09:48:04.643Z,57.46
2018-04-24T09:49:04.650Z,57.46
2018-04-24T09:50:04.654Z,58.23
2018-04-24T09:51:04.658Z,57.28
2018-04-24T09:52:04.685Z,58.71
2018-04-24T09:53:04.669Z,57.65
2018-04-24T09:54:04.671Z,57.56
2018-04-24T09:55:04.677Z,58.91
2018-04-24T09:56:04.688Z,58.17
2018-04-24T09:57:04.690Z,57.88
2018-04-24T09:58:04.695Z,57.78
2018-04-24T09:59:04.696Z,57.68
2018-04-24T10:00:04.700Z,57.40
2018-04-24T10:01:04.707Z,56.85
2018-04-24T10:02:04.726Z,56.85
2018-04-24T10:03:04.716Z,56.76
2018-04-24T10:04:04.718Z,57.23
2018-04-24T10:05:04.725Z,55.86
2018-04-24T10:06:04.744Z,55.89
2018-04-24T10:07:04.732Z,56.18
2018-04-24T10:08:04.738Z,55.67
2018-04-24T10:09:05.304Z,56.37
2018-04-24T10:10:04.769Z,56.08
2018-04-24T10:11:04.753Z,56.08
2018-04-24T10:12:04.824Z,52.81
2018-04-24T10:13:04.854Z,54.19
2018-04-24T10:14:04.770Z,53.80
2018-04-24T10:15:04.772Z,53.54
2018-04-24T10:16:04.778Z,52.20
2018-04-24T10:17:04.788Z,51.72
2018-04-24T10:18:04.787Z,51.55
2018-04-24T10:19:04.793Z,52.12
2018-04-24T10:20:04.799Z,50.49
2018-04-24T10:21:04.803Z,51.07
2018-04-24T10:22:04.810Z,50.32
2018-04-24T10:23:04.817Z,49.24
2018-04-24T10:24:04.820Z,50.04
2018-04-24T10:25:04.825Z,49.65
2018-04-24T10:26:04.828Z,50.23
2018-04-24T10:27:04.834Z,50.35
2018-04-24T10:28:04.839Z,48.97
2018-04-24T10:29:04.856Z,49.74
2018-04-24T10:30:04.851Z,49.27
2018-04-24T10:31:04.854Z,47.63
2018-04-24T10:32:04.860Z,47.31
2018-04-24T10:33:04.872Z,47.99
2018-04-24T10:34:04.876Z,49.33
2018-04-24T10:35:04.878Z,49.33
2018-04-24T10:36:04.886Z,48.66
2018-04-24T10:37:05.825Z,48.95
2018-04-24T10:38:04.892Z,50.49
2018-04-24T10:39:04.899Z,50.49
2018-04-24T10:40:04.903Z,50.59
2018-04-24T10:41:04.912Z,50.81
2018-04-24T10:42:04.916Z,51.09
2018-04-24T10:43:04.918Z,51.29
2018-04-24T10:44:04.924Z,50.61
2018-04-24T10:45:04.930Z,50.04
2018-04-24T10:46:04.935Z,49.65
2018-04-24T10:47:04.940Z,50.04
2018-04-24T10:48:04.949Z,50.42
2018-04-24T10:49:04.957Z,50.81
2018-04-24T10:50:04.959Z,49.77
2018-04-24T10:51:04.964Z,49.29
2018-04-24T10:52:04.977Z,48.90
2018-04-24T10:53:04.981Z,49.00
2018-04-24T10:54:04.978Z,47.75
2018-04-24T10:55:04.985Z,48.03
2018-04-24T10:56:05.029Z,48.43
2018-04-24T10:57:04.998Z,46.69
2018-04-24T10:58:05.002Z,47.56
2018-04-24T10:59:05.012Z,47.75
2018-04-24T11:00:05.021Z,49.19
2018-04-24T11:01:05.026Z,49.48
2018-04-24T11:02:05.045Z,47.92
2018-04-24T11:03:05.033Z,48.97
2018-04-24T11:04:05.042Z,49.46
2018-04-24T11:05:05.041Z,48.79
2018-04-24T11:06:05.049Z,49.48
2018-04-24T11:07:05.058Z,49.87
2018-04-24T11:08:05.059Z,49.19
2018-04-24T11:09:05.063Z,49.36
2018-04-24T11:10:05.071Z,48.97
2018-04-24T11:11:05.111Z,47.82
2018-04-24T11:12:05.080Z,47.22
2018-04-24T11:13:05.087Z,47.51
2018-04-24T11:14:05.091Z,49.12
2018-04-24T11:15:05.099Z,48.74
2018-04-24T11:16:05.105Z,49.99
2018-04-24T11:17:05.163Z,49.89
2018-04-24T11:18:05.117Z,49.38
2018-04-24T11:19:05.124Z,49.48
2018-04-24T11:20:05.124Z,49.96
2018-04-24T11:21:05.139Z,50.54
2018-04-24T11:22:05.136Z,50.25
2018-04-24T11:23:05.140Z,49.22
2018-04-24T11:24:05.147Z,49.00
2018-04-24T11:25:05.153Z,49.48
2018-04-24T11:26:05.157Z,49.57
2018-04-24T11:27:05.163Z,50.44
2018-04-24T11:28:05.173Z,50.46
2018-04-24T11:29:05.174Z,50.25
2018-04-24T11:30:05.178Z,49.67
2018-04-24T11:31:05.182Z,50.25
2018-04-24T11:32:05.188Z,50.25
2018-04-24T11:33:05.255Z,50.15
2018-04-24T11:34:05.225Z,49.57
2018-04-24T11:35:05.203Z,50.42
2018-04-24T11:36:05.219Z,50.90
2018-04-24T11:37:05.217Z,50.80
2018-04-24T11:38:05.218Z,50.99
2018-04-24T11:39:05.224Z,51.86
2018-04-24T11:40:05.229Z,51.37
2018-04-24T11:41:05.233Z,51.57
2018-04-24T11:42:05.244Z,51.57
2018-04-24T11:43:05.245Z,52.34
2018-04-24T11:44:05.329Z,52.08
2018-04-24T11:45:05.301Z,52.14
2018-04-24T11:46:05.258Z,52.43
2018-04-24T11:47:05.261Z,52.72
2018-04-24T11:48:05.269Z,53.49
2018-04-24T11:49:05.272Z,53.61
2018-04-24T11:50:05.288Z,54.00
2018-04-24T11:51:05.284Z,53.23
2018-04-24T11:52:05.288Z,53.61
2018-04-24T11:53:05.291Z,52.94
2018-04-24T11:54:05.294Z,52.94
2018-04-24T11:55:05.300Z,53.03
2018-04-24T11:56:05.307Z,53.03
2018-04-24T11:57:05.365Z,53.61
2018-04-24T11:58:05.322Z,53.61
2018-04-24T11:59:05.319Z,52.94
2018-04-24T12:00:05.325Z,52.75
2018-04-24T12:01:05.330Z,53.13
2018-04-24T12:02:05.336Z,54.77
2018-04-24T12:03:05.339Z,54.22
2018-04-24T12:04:05.344Z,52.97
2018-04-24T12:05:05.347Z,53.06
2018-04-24T12:06:05.368Z,53.45
2018-04-24T12:07:05.366Z,54.22
2018-04-24T12:08:05.369Z,53.54
2018-04-24T12:09:05.371Z,52.29
2018-04-24T12:10:05.393Z,53.06
2018-04-24T12:11:05.380Z,52.39
2018-04-24T12:12:05.393Z,52.03
2018-04-24T12:13:05.387Z,52.42
2018-04-24T12:14:05.394Z,52.89
2018-04-24T12:15:05.394Z,53.38
2018-04-24T12:16:05.402Z,52.10
2018-04-24T12:17:05.405Z,53.35
2018-04-24T12:18:05.412Z,52.97
2018-04-24T12:19:05.416Z,53.35
2018-04-24T12:20:05.420Z,53.32
2018-04-24T12:21:05.428Z,53.90
2018-04-24T12:22:05.431Z,54.00
2018-04-24T12:23:05.442Z,53.61
2018-04-24T12:24:05.442Z,52.46
2018-04-24T12:25:05.446Z,52.36
2018-04-24T12:26:05.456Z,53.13
2018-04-24T12:27:05.454Z,53.80
2018-04-24T12:28:05.459Z,53.80
2018-04-24T12:29:05.465Z,53.01
2018-04-24T12:30:05.471Z,52.72
2018-04-24T12:31:05.473Z,52.43
2018-04-24T12:32:05.479Z,51.86
2018-04-24T12:33:05.484Z,52.62
2018-04-24T12:34:06.339Z,53.49
2018-04-24T12:35:05.495Z,53.58
2018-04-24T12:36:05.500Z,53.87
2018-04-24T12:37:05.505Z,53.49
2018-04-24T12:38:05.508Z,51.86
2018-04-24T12:39:05.513Z,53.13
2018-04-24T12:40:05.519Z,52.94
2018-04-24T12:41:05.523Z,53.01
2018-04-24T12:42:05.528Z,52.05
2018-04-24T12:43:05.539Z,52.91
2018-04-24T12:44:05.537Z,53.11
2018-04-24T12:45:05.541Z,53.30
2018-04-24T12:46:05.545Z,52.43
2018-04-24T12:47:05.548Z,53.01
2018-04-24T12:48:05.554Z,53.68
2018-04-24T12:49:05.560Z,52.72
2018-04-24T12:50:05.563Z,52.24
2018-04-24T12:51:05.569Z,52.24
2018-04-24T12:52:05.578Z,51.95